createdAt,value
2023-02-02T00:01:20.452Z,95.38
2023-02-02T00:03:50.716Z,95.92
2023-02-02T00:06:18.807Z,96.03
2023-02-02T00:08:46.685Z,95.98
2023-02-02T00:11:14.570Z,95.83
2023-02-02T00:13:43.592Z,96.41
2023-02-02T00:16:42.990Z,96.97
2023-02-02T00:19:13.531Z,95.85
2023-02-02T00:21:41.716Z,96.47
2023-02-02T00:24:11.033Z,96.77
2023-02-02T00:26:39.791Z,96.36
2023-02-02T00:29:10.804Z,97.54
2023-02-02T00:31:38.425Z,97.44
2023-02-02T00:34:06.012Z,97.23
2023-02-02T00:36:33.689Z,97.54
2023-02-02T00:39:01.415Z,97.36
2023-02-02T00:41:29.030Z,97.83
2023-02-02T00:44:14.167Z,97.99
2023-02-02T00:46:43.537Z,98.09
2023-02-02T00:49:11.374Z,98.17
2023-02-02T00:51:39.005Z,99.24
2023-02-02T00:54:07.097Z,99.07
2023-02-02T00:56:34.714Z,99.07
2023-02-02T00:59:02.291Z,99.04
2023-02-02T01:01:30.046Z,99.63
2023-02-02T01:03:59.120Z,98.48
2023-02-02T01:06:26.643Z,98.97
2023-02-02T01:08:54.681Z,98.64
2023-02-02T01:11:22.441Z,98.97
2023-02-02T01:13:50.027Z,98.90
2023-02-02T01:16:17.672Z,98.55
2023-02-02T01:18:45.386Z,98.65
2023-02-02T01:21:14.406Z,98.90
2023-02-02T01:23:41.967Z,98.80
2023-02-02T01:26:10.994Z,99.47
2023-02-02T01:28:38.898Z,99.43
2023-02-02T01:31:08.388Z,99.37
2023-02-02T01:33:36.191Z,99.67
2023-02-02T01:36:06.421Z,99.09
2023-02-02T01:38:35.806Z,99.66
2023-02-02T01:41:04.454Z,99.87
2023-02-02T01:43:52.667Z,99.50
2023-02-02T01:46:21.277Z,99.07
2023-02-02T01:48:50.706Z,98.81
2023-02-02T01:51:20.528Z,99.55
2023-02-02T01:53:50.852Z,99.67
2023-02-02T01:56:20.610Z,99.62
2023-02-02T01:58:48.184Z,99.92
2023-02-02T02:01:16.006Z,99.83
2023-02-02T02:03:43.796Z,99.42
2023-02-02T02:06:14.358Z,99.17
2023-02-02T02:08:47.225Z,99.97
2023-02-02T02:11:16.437Z,99.84
2023-02-02T02:14:01.581Z,99.87
2023-02-02T02:16:37.964Z,100.00
2023-02-02T02:19:14.956Z,100.00
2023-02-02T02:22:12.876Z,100.00
2023-02-02T02:25:42.462Z,100.00
2023-02-02T02:28:27.121Z,100.00
2023-02-02T02:31:33.211Z,99.88
2023-02-02T02:34:05.527Z,100.00
2023-02-02T02:36:40.656Z,100.00
2023-02-02T02:39:13.904Z,100.00
2023-02-02T02:41:45.088Z,100.00
2023-02-02T02:44:15.508Z,100.00
2023-02-02T02:46:43.415Z,100.00
2023-02-02T02:49:14.024Z,100.00
2023-02-02T02:51:47.571Z,100.00
2023-02-02T02:54:17.244Z,100.00
2023-02-02T02:56:59.643Z,100.00
2023-02-02T02:59:35.592Z,99.48
2023-02-02T03:02:16.896Z,99.60
2023-02-02T03:04:52.772Z,99.70
2023-02-02T03:07:25.199Z,99.16
2023-02-02T03:09:53.421Z,99.72
2023-02-02T03:12:20.986Z,99.74
2023-02-02T03:14:48.631Z,99.51
2023-02-02T03:17:16.217Z,99.89
2023-02-02T03:19:43.765Z,100.00
2023-02-02T03:22:12.745Z,100.00
2023-02-02T03:24:40.455Z,100.00
2023-02-02T03:27:08.063Z,100.00
2023-02-02T03:29:35.692Z,100.00
2023-02-02T03:32:03.234Z,100.00
2023-02-02T03:34:30.946Z,100.00
2023-02-02T03:36:58.533Z,100.00
2023-02-02T03:39:27.453Z,100.00
2023-02-02T03:41:55.106Z,100.00
2023-02-02T03:44:22.792Z,100.00
2023-02-02T03:46:50.386Z,100.00
2023-02-02T03:49:18.018Z,100.00
2023-02-02T03:51:45.671Z,100.00
2023-02-02T03:54:13.555Z,100.00
2023-02-02T03:56:42.469Z,100.00
2023-02-02T03:59:10.011Z,100.00
2023-02-02T04:01:37.698Z,100.00
2023-02-02T04:04:05.325Z,100.00
2023-02-02T04:06:32.999Z,100.00
2023-02-02T04:09:00.647Z,100.00
2023-02-02T04:11:28.174Z,100.00
2023-02-02T04:13:57.116Z,100.00
2023-02-02T04:16:24.768Z,100.00
2023-02-02T04:18:52.349Z,100.00
2023-02-02T04:21:19.962Z,100.00
2023-02-02T04:23:47.493Z,100.00
2023-02-02T04:26:15.208Z,100.00
2023-02-02T04:28:42.822Z,100.00
2023-02-02T04:31:12.003Z,100.00
2023-02-02T04:33:39.707Z,100.00
2023-02-02T04:36:07.937Z,100.00
2023-02-02T04:38:35.706Z,100.00
2023-02-02T04:41:07.470Z,100.00
2023-02-02T04:43:35.138Z,99.58
2023-02-02T04:46:03.116Z,99.76
2023-02-02T04:48:32.332Z,99.35
2023-02-02T04:51:01.269Z,99.81
2023-02-02T04:53:29.375Z,99.45
2023-02-02T04:55:57.221Z,99.28
2023-02-02T04:58:24.981Z,99.14
2023-02-02T05:00:52.688Z,99.52
2023-02-02T05:03:20.284Z,100.00
2023-02-02T05:05:49.371Z,100.00
2023-02-02T05:08:16.944Z,99.91
2023-02-02T05:10:44.917Z,99.69
2023-02-02T05:13:12.530Z,100.00
2023-02-02T05:15:40.093Z,100.00
2023-02-02T05:18:07.807Z,100.00
2023-02-02T05:20:35.384Z,99.79
2023-02-02T05:23:04.269Z,100.00
2023-02-02T05:25:31.885Z,100.00
2023-02-02T05:27:59.792Z,100.00
2023-02-02T05:30:27.590Z,100.00
2023-02-02T05:32:55.169Z,100.00
2023-02-02T05:35:23.060Z,100.00
2023-02-02T05:37:53.441Z,100.00
2023-02-02T05:40:23.042Z,100.00
2023-02-02T05:42:50.694Z,100.00
2023-02-02T05:45:21.340Z,100.00
2023-02-02T05:47:49.019Z,100.00
2023-02-02T05:50:17.365Z,100.00
2023-02-02T05:52:46.172Z,100.00
2023-02-02T05:55:16.371Z,100.00
2023-02-02T05:57:45.457Z,100.00
2023-02-02T06:00:14.046Z,100.00
2023-02-02T06:02:41.645Z,100.00
2023-02-02T06:05:09.741Z,100.00
2023-02-02T06:07:37.403Z,100.00
2023-02-02T06:10:05.725Z,100.00
2023-02-02T06:12:33.330Z,100.00
2023-02-02T06:15:02.314Z,100.00
2023-02-02T06:17:29.860Z,100.00
2023-02-02T06:19:57.527Z,100.00
2023-02-02T06:22:25.199Z,100.00
2023-02-02T06:24:53.321Z,100.00
2023-02-02T06:27:21.223Z,100.00
2023-02-02T06:29:48.995Z,100.00
2023-02-02T06:32:17.947Z,100.00
2023-02-02T06:34:45.531Z,100.00
2023-02-02T06:37:13.068Z,100.00
2023-02-02T06:39:40.585Z,100.00
2023-02-02T06:42:20.348Z,100.00
2023-02-02T06:44:48.728Z,100.00
2023-02-02T06:47:17.673Z,100.00
2023-02-02T06:49:45.192Z,100.00
2023-02-02T06:52:12.827Z,100.00
2023-02-02T06:54:40.404Z,100.00
2023-02-02T06:57:09.324Z,100.00
2023-02-02T06:59:36.967Z,100.00
2023-02-02T07:02:04.755Z,100.00
2023-02-02T07:04:33.756Z,99.07
2023-02-02T07:07:01.342Z,99.07
2023-02-02T07:09:28.903Z,98.79
2023-02-02T07:11:56.893Z,98.26
2023-02-02T07:14:25.689Z,97.97
2023-02-02T07:16:53.258Z,97.72
2023-02-02T07:19:20.870Z,97.41
2023-02-02T07:21:49.932Z,96.93
2023-02-02T07:24:17.701Z,96.95
2023-02-02T07:26:45.446Z,97.05
2023-02-02T07:29:13.997Z,96.59
2023-02-02T07:31:41.800Z,96.98
2023-02-02T07:34:09.402Z,97.31
2023-02-02T07:36:37.103Z,96.56
2023-02-02T07:39:07.610Z,96.13
2023-02-02T07:41:36.412Z,95.51
2023-02-02T07:44:04.176Z,95.74
2023-02-02T07:46:32.171Z,95.70
2023-02-02T07:48:59.818Z,96.21
2023-02-02T07:51:27.612Z,95.74
2023-02-02T07:53:58.384Z,95.61
2023-02-02T07:56:28.479Z,95.16
2023-02-02T07:58:57.408Z,94.82
2023-02-02T08:01:26.303Z,95.06
2023-02-02T08:03:54.535Z,94.52
2023-02-02T08:06:23.597Z,94.29
2023-02-02T08:08:53.137Z,94.13
2023-02-02T08:11:22.859Z,94.77
2023-02-02T08:13:52.946Z,94.11
2023-02-02T08:16:21.216Z,94.49
2023-02-02T08:18:49.117Z,94.65
2023-02-02T08:21:17.293Z,94.08
2023-02-02T08:23:45.624Z,94.44
2023-02-02T08:26:15.354Z,94.47
2023-02-02T08:28:44.290Z,94.89
2023-02-02T08:31:15.327Z,93.91
2023-02-02T08:33:43.543Z,93.26
2023-02-02T08:36:13.004Z,93.46
2023-02-02T08:38:40.619Z,93.97
2023-02-02T08:41:09.255Z,93.09
2023-02-02T08:43:37.274Z,92.58
2023-02-02T08:46:05.939Z,92.88
2023-02-02T08:48:36.249Z,92.23
2023-02-02T08:51:05.211Z,92.42
2023-02-02T08:53:33.542Z,92.97
2023-02-02T08:56:02.212Z,91.91
2023-02-02T08:58:30.049Z,91.64
2023-02-02T09:01:05.867Z,91.85
2023-02-02T09:03:35.425Z,91.97
2023-02-02T09:06:07.072Z,91.25
2023-02-02T09:08:34.797Z,91.01
2023-02-02T09:11:07.064Z,91.24
2023-02-02T09:13:34.784Z,91.71
2023-02-02T09:16:02.937Z,91.24
2023-02-02T09:18:30.997Z,91.08
2023-02-02T09:21:02.409Z,90.60
2023-02-02T09:23:31.125Z,90.32
2023-02-02T09:25:59.050Z,90.44
2023-02-02T09:28:26.684Z,90.79
2023-02-02T09:30:54.310Z,90.97
2023-02-02T09:33:21.944Z,91.14
2023-02-02T09:35:49.634Z,90.28
2023-02-02T09:38:18.552Z,89.94
2023-02-02T09:40:46.167Z,89.55
2023-02-02T09:43:28.166Z,90.26
2023-02-02T09:46:00.862Z,90.10
2023-02-02T09:48:31.099Z,90.17
2023-02-02T09:51:01.123Z,90.17
2023-02-02T09:53:53.179Z,89.96
2023-02-02T09:56:25.448Z,89.84
2023-02-02T09:58:54.886Z,90.28
2023-02-02T10:01:24.318Z,89.14
2023-02-02T10:04:01.200Z,89.92
2023-02-02T10:06:35.566Z,89.84
2023-02-02T10:09:14.350Z,89.82
2023-02-02T10:11:46.460Z,89.56
2023-02-02T10:14:19.554Z,90.63
2023-02-02T10:16:47.958Z,90.83
2023-02-02T10:19:15.978Z,90.65
2023-02-02T10:21:48.113Z,90.37
2023-02-02T10:24:19.449Z,89.93
2023-02-02T10:26:49.092Z,90.97
2023-02-02T10:29:18.717Z,90.46
2023-02-02T10:31:54.373Z,90.34
2023-02-02T10:34:25.153Z,90.21
2023-02-02T10:37:07.514Z,89.19
2023-02-02T10:39:45.883Z,89.61
2023-02-02T10:42:20.741Z,89.61
2023-02-02T10:44:51.687Z,89.36
2023-02-02T10:47:25.353Z,89.23
2023-02-02T10:49:59.505Z,89.35
2023-02-02T10:52:31.253Z,88.96
2023-02-02T10:55:04.441Z,88.35
2023-02-02T10:57:53.554Z,88.32
2023-02-02T11:00:24.124Z,88.51
2023-02-02T11:02:52.626Z,88.45
2023-02-02T11:05:40.259Z,87.82
2023-02-02T11:08:15.836Z,88.73
2023-02-02T11:10:46.111Z,88.52
2023-02-02T11:13:19.921Z,88.90
2023-02-02T11:15:47.567Z,89.46
2023-02-02T11:18:27.273Z,89.27
2023-02-02T11:20:55.222Z,88.46
2023-02-02T11:23:23.065Z,88.95
2023-02-02T11:26:00.800Z,88.18
2023-02-02T11:28:30.941Z,87.53
2023-02-02T11:30:59.016Z,88.08
2023-02-02T11:33:31.846Z,88.36
2023-02-02T11:36:00.991Z,87.48
2023-02-02T11:38:29.517Z,87.91
2023-02-02T11:41:02.343Z,87.52
2023-02-02T11:43:31.529Z,88.59
2023-02-02T11:46:02.989Z,87.89
2023-02-02T11:48:34.239Z,87.66
2023-02-02T11:51:02.677Z,88.50
2023-02-02T11:53:32.237Z,87.91
2023-02-02T11:56:03.674Z,87.36
2023-02-02T11:58:44.483Z,88.24
2023-02-02T12:01:24.490Z,88.27
2023-02-02T12:03:54.023Z,88.00
2023-02-02T12:06:22.988Z,87.96
2023-02-02T12:08:50.974Z,87.88
2023-02-02T12:11:30.374Z,87.78
2023-02-02T12:14:06.908Z,87.07
2023-02-02T12:16:43.566Z,86.70
2023-02-02T12:19:28.480Z,85.76
2023-02-02T12:22:02.369Z,86.65
2023-02-02T12:24:32.679Z,85.77
2023-02-02T12:27:12.423Z,85.10
2023-02-02T12:29:49.498Z,85.22
2023-02-02T12:32:27.532Z,85.37
2023-02-02T12:35:05.162Z,86.09
2023-02-02T12:37:43.868Z,85.70
2023-02-02T12:40:31.133Z,85.50
2023-02-02T12:43:11.784Z,86.78
2023-02-02T12:45:47.728Z,85.23
2023-02-02T12:48:24.567Z,86.20
2023-02-02T12:51:01.750Z,85.42
2023-02-02T12:53:39.538Z,85.16
2023-02-02T12:56:18.453Z,83.55
2023-02-02T12:58:54.405Z,84.46
2023-02-02T13:01:34.691Z,83.68
2023-02-02T13:04:12.360Z,84.26
2023-02-02T13:07:07.626Z,85.09
2023-02-02T13:09:41.235Z,84.67
2023-02-02T13:12:10.700Z,83.98
2023-02-02T13:14:42.595Z,84.16
2023-02-02T13:17:14.143Z,84.21
2023-02-02T13:19:43.511Z,85.37
2023-02-02T13:22:16.507Z,84.54
2023-02-02T13:24:46.918Z,85.24
2023-02-02T13:27:17.121Z,85.64
2023-02-02T13:29:49.731Z,86.01
2023-02-02T13:32:22.440Z,86.19
2023-02-02T13:34:52.343Z,86.67
2023-02-02T13:37:26.310Z,87.08
2023-02-02T13:39:57.373Z,87.29
2023-02-02T13:42:33.106Z,88.00
2023-02-02T13:45:04.736Z,86.85
2023-02-02T13:47:38.881Z,87.34
2023-02-02T13:50:12.154Z,87.57
2023-02-02T13:52:51.323Z,87.10
2023-02-02T13:55:45.702Z,86.53
2023-02-02T13:58:41.171Z,87.49
2023-02-02T14:01:12.157Z,88.41
2023-02-02T14:03:41.418Z,88.13
2023-02-02T14:06:12.379Z,87.85
2023-02-02T14:08:46.550Z,88.85
2023-02-02T14:11:19.935Z,88.95
2023-02-02T14:14:06.639Z,87.74
2023-02-02T14:16:48.147Z,87.68
2023-02-02T14:19:17.237Z,87.76
2023-02-02T14:22:06.246Z,87.90
2023-02-02T14:24:45.664Z,86.69
2023-02-02T14:27:58.064Z,87.49
2023-02-02T14:30:32.689Z,87.37
2023-02-02T14:33:23.276Z,87.88
2023-02-02T14:36:01.651Z,88.67
2023-02-02T14:38:45.941Z,88.38
2023-02-02T14:41:37.420Z,88.22
2023-02-02T14:44:05.021Z,87.66
2023-02-02T14:46:35.584Z,88.64
2023-02-02T14:49:16.884Z,88.80
2023-02-02T14:52:00.267Z,88.81
2023-02-02T14:54:37.440Z,89.56
2023-02-02T14:57:22.398Z,89.49
2023-02-02T14:59:50.889Z,89.79
2023-02-02T15:02:21.850Z,88.79
2023-02-02T15:04:51.184Z,89.08
2023-02-02T15:07:47.291Z,89.15
2023-02-02T15:10:57.487Z,89.64
2023-02-02T15:13:26.038Z,89.15
2023-02-02T15:16:08.350Z,88.61
2023-02-02T15:18:42.140Z,88.86
2023-02-02T15:21:15.506Z,89.47
2023-02-02T15:23:44.963Z,88.99
2023-02-02T15:26:16.564Z,88.96
2023-02-02T15:28:48.338Z,89.82
2023-02-02T15:31:20.474Z,89.00
2023-02-02T15:33:50.612Z,89.50
2023-02-02T15:36:23.780Z,89.97
2023-02-02T15:38:54.198Z,89.97
2023-02-02T15:41:24.932Z,90.27
2023-02-02T15:43:53.286Z,90.51
2023-02-02T15:46:24.452Z,90.28
2023-02-02T15:49:32.718Z,90.18
2023-02-02T15:52:10.109Z,90.25
2023-02-02T15:54:38.982Z,90.19
2023-02-02T15:57:23.740Z,90.79
2023-02-02T15:59:51.335Z,90.62
2023-02-02T16:02:24.096Z,89.96
2023-02-02T16:04:51.725Z,90.42
2023-02-02T16:07:23.071Z,89.77
2023-02-02T16:09:50.942Z,90.68
2023-02-02T16:12:20.429Z,90.14
2023-02-02T16:14:49.609Z,89.75
2023-02-02T16:17:21.737Z,89.70
2023-02-02T16:19:50.557Z,89.29
2023-02-02T16:22:23.870Z,89.23
2023-02-02T16:24:54.817Z,88.93
2023-02-02T16:27:24.628Z,89.27
2023-02-02T16:29:52.306Z,89.17
2023-02-02T16:32:38.875Z,89.03
2023-02-02T16:35:25.853Z,89.14
2023-02-02T16:38:12.932Z,89.53
2023-02-02T16:40:40.965Z,89.67
2023-02-02T16:43:17.927Z,90.32
2023-02-02T16:45:47.940Z,89.84
2023-02-02T16:48:30.723Z,90.67
2023-02-02T16:51:23.921Z,90.40
2023-02-02T16:53:59.149Z,91.03
2023-02-02T16:56:31.228Z,90.48
2023-02-02T16:59:00.505Z,91.66
2023-02-02T17:01:37.622Z,90.93
2023-02-02T17:04:06.763Z,90.54
2023-02-02T17:06:50.448Z,91.44
2023-02-02T17:09:36.405Z,91.17
2023-02-02T17:12:14.270Z,90.96
2023-02-02T17:14:53.100Z,90.12
2023-02-02T17:17:21.184Z,90.61
2023-02-02T17:19:48.826Z,90.20
2023-02-02T17:22:18.960Z,89.88
2023-02-02T17:24:49.761Z,89.96
2023-02-02T17:27:19.568Z,90.75
2023-02-02T17:29:47.391Z,90.31
2023-02-02T17:32:15.006Z,90.69
2023-02-02T17:34:42.695Z,90.22
2023-02-02T17:37:10.751Z,90.66
2023-02-02T17:39:38.395Z,90.71
2023-02-02T17:42:07.949Z,91.03
2023-02-02T17:44:35.708Z,90.77
2023-02-02T17:47:03.232Z,90.67
2023-02-02T17:49:30.818Z,90.94
2023-02-02T17:51:58.479Z,90.83
2023-02-02T17:54:26.357Z,90.90
2023-02-02T17:56:53.988Z,91.02
2023-02-02T17:59:22.991Z,90.85
2023-02-02T18:01:51.125Z,90.36
2023-02-02T18:04:18.995Z,90.76
2023-02-02T18:06:46.679Z,91.00
2023-02-02T18:09:14.378Z,90.74
2023-02-02T18:11:42.668Z,91.00
2023-02-02T18:14:10.721Z,90.96
2023-02-02T18:16:39.754Z,90.89
2023-02-02T18:19:07.351Z,91.09
2023-02-02T18:21:34.948Z,91.02
2023-02-02T18:24:02.590Z,91.43
2023-02-02T18:26:31.461Z,91.75
2023-02-02T18:28:59.968Z,91.75
2023-02-02T18:31:27.911Z,91.34
2023-02-02T18:33:57.095Z,90.95
2023-02-02T18:36:24.725Z,91.28
2023-02-02T18:38:53.781Z,91.55
2023-02-02T18:41:22.094Z,91.60
2023-02-02T18:43:52.648Z,91.70
2023-02-02T18:46:20.397Z,91.22
2023-02-02T18:48:48.156Z,91.40
2023-02-02T18:51:18.908Z,91.89
2023-02-02T18:53:47.501Z,91.92
2023-02-02T18:56:15.817Z,92.32
2023-02-02T18:58:43.414Z,91.89
2023-02-02T19:01:12.238Z,91.62
2023-02-02T19:03:40.854Z,92.10
2023-02-02T19:06:27.848Z,92.04
2023-02-02T19:08:56.759Z,91.93
2023-02-02T19:11:26.610Z,92.02
2023-02-02T19:13:54.643Z,91.64
2023-02-02T19:16:25.390Z,91.96
2023-02-02T19:18:56.818Z,92.44
2023-02-02T19:21:24.594Z,92.85
2023-02-02T19:23:52.171Z,92.04
2023-02-02T19:26:24.613Z,93.10
2023-02-02T19:28:52.770Z,92.81
2023-02-02T19:31:21.024Z,92.92
2023-02-02T19:33:50.271Z,93.57
2023-02-02T19:36:20.541Z,92.94
2023-02-02T19:38:49.456Z,93.72
2023-02-02T19:41:20.241Z,93.84
2023-02-02T19:43:50.132Z,94.06
2023-02-02T19:46:22.205Z,94.03
2023-02-02T19:48:52.499Z,94.10
2023-02-02T19:51:38.600Z,94.25
2023-02-02T19:54:12.924Z,93.83
2023-02-02T19:56:40.563Z,93.93
2023-02-02T19:59:14.372Z,94.84
2023-02-02T20:01:45.804Z,94.57
2023-02-02T20:04:14.483Z,94.47
2023-02-02T20:06:56.688Z,94.29
2023-02-02T20:09:28.584Z,94.30
2023-02-02T20:11:56.687Z,94.90
2023-02-02T20:14:32.786Z,94.53
2023-02-02T20:17:03.477Z,94.97
2023-02-02T20:19:35.217Z,94.71
2023-02-02T20:22:03.456Z,94.78
2023-02-02T20:24:36.481Z,94.18
2023-02-02T20:27:17.233Z,94.57
2023-02-02T20:29:47.726Z,94.80
2023-02-02T20:32:21.007Z,95.27
2023-02-02T20:34:49.711Z,94.94
2023-02-02T20:37:23.229Z,95.04
2023-02-02T20:39:54.189Z,94.62
2023-02-02T20:42:22.013Z,94.63
2023-02-02T20:44:51.029Z,94.82
2023-02-02T20:47:18.794Z,94.88
2023-02-02T20:49:46.602Z,95.36
2023-02-02T20:52:21.812Z,95.63
2023-02-02T20:54:49.678Z,94.98
2023-02-02T20:57:27.299Z,95.12
2023-02-02T20:59:57.728Z,95.59
2023-02-02T21:02:26.470Z,95.94
2023-02-02T21:04:55.005Z,95.78
2023-02-02T21:07:23.711Z,95.86
2023-02-02T21:09:51.862Z,95.79
2023-02-02T21:12:22.227Z,96.23
2023-02-02T21:14:49.804Z,96.13
2023-02-02T21:17:18.839Z,96.68
2023-02-02T21:19:46.606Z,96.66
2023-02-02T21:22:14.466Z,96.35
2023-02-02T21:24:42.610Z,96.90
2023-02-02T21:27:10.505Z,96.67
2023-02-02T21:29:38.480Z,96.92
2023-02-02T21:32:06.618Z,96.93
2023-02-02T21:34:37.654Z,96.84
2023-02-02T21:37:10.768Z,97.35
2023-02-02T21:39:38.674Z,97.62
2023-02-02T21:42:13.040Z,97.79
2023-02-02T21:44:42.218Z,97.85
2023-02-02T21:47:30.279Z,98.14
2023-02-02T21:50:05.444Z,98.01
2023-02-02T21:52:34.775Z,98.07
2023-02-02T21:55:22.823Z,98.23
2023-02-02T21:57:50.564Z,98.96
2023-02-02T22:00:24.834Z,98.51
2023-02-02T22:02:53.939Z,98.86
2023-02-02T22:05:25.659Z,98.90
2023-02-02T22:07:54.315Z,98.75
2023-02-02T22:10:37.119Z,99.43
2023-02-02T22:13:15.516Z,99.53
2023-02-02T22:15:45.883Z,100.00
2023-02-02T22:18:14.912Z,99.99
2023-02-02T22:20:47.027Z,99.78
2023-02-02T22:23:16.522Z,99.38
2023-02-02T22:25:45.581Z,99.83
2023-02-02T22:28:20.091Z,100.00
2023-02-02T22:30:47.913Z,100.00
2023-02-02T22:33:16.202Z,100.00
2023-02-02T22:35:46.100Z,100.00
2023-02-02T22:38:17.819Z,100.00
2023-02-02T22:40:45.528Z,100.00
2023-02-02T22:43:16.254Z,100.00
2023-02-02T22:45:44.506Z,100.00
2023-02-02T22:48:12.445Z,100.00
2023-02-02T22:50:40.376Z,100.00
2023-02-02T22:53:09.564Z,100.00
2023-02-02T22:55:37.627Z,100.00
2023-02-02T22:58:05.247Z,100.00
2023-02-02T23:00:33.581Z,100.00
2023-02-02T23:03:01.564Z,100.00
2023-02-02T23:05:29.357Z,100.00
2023-02-02T23:07:57.202Z,100.00
2023-02-02T23:10:29.518Z,100.00
2023-02-02T23:12:58.559Z,100.00
2023-02-02T23:15:26.596Z,100.00
2023-02-02T23:17:54.722Z,100.00
2023-02-02T23:20:22.653Z,100.00
2023-02-02T23:22:50.227Z,100.00
2023-02-02T23:25:18.660Z,100.00
2023-02-02T23:27:47.723Z,100.00
2023-02-02T23:30:16.070Z,100.00
2023-02-02T23:32:43.649Z,100.00
2023-02-02T23:35:11.349Z,100.00
2023-02-02T23:37:39.439Z,100.00
2023-02-02T23:40:08.231Z,100.00
2023-02-02T23:42:35.956Z,100.00
2023-02-02T23:45:05.619Z,100.00
2023-02-02T23:47:33.763Z,100.00
2023-02-02T23:50:04.334Z,100.00
2023-02-02T23:52:32.521Z,100.00
2023-02-02T23:55:00.964Z,100.00
2023-02-02T23:57:28.727Z,100.00
2023-02-02T23:59:56.371Z,100.00
